Time;durP1;ratioP1;P1;durP2;ratioP2;P2;SDS_P1;SDS_P2;PMS_P1;PMS_P2;Temp;Humidity;BMP_temperature;BMP_pressure;BME280_temperature;BME280_humidity;BME280_pressure;Samples;Min_cycle;Max_cycle;Signal;HPM_P1;HPM_P2
2021/08/14 00:02:15;;;;;;;18.77;9.73;;;17.20;84.50;;;;;;5032888;28;20484;-79
2021/08/14 00:04:41;;;;;;;17.77;9.70;;;17.20;84.70;;;;;;5045144;28;20044;-79
2021/08/14 00:07:07;;;;;;;16.15;9.65;;;17.20;84.80;;;;;;5042652;28;20063;-78
2021/08/14 00:09:34;;;;;;;15.27;9.27;;;17.20;84.80;;;;;;5056468;28;20022;-78
2021/08/14 00:12:01;;;;;;;14.25;9.25;;;17.20;84.70;;;;;;5062620;28;20494;-79
2021/08/14 00:14:27;;;;;;;14.10;8.93;;;17.20;84.60;;;;;;5050061;28;20055;-79
2021/08/14 00:16:52;;;;;;;15.80;9.30;;;17.20;84.60;;;;;;5039985;28;20080;-79
2021/08/14 00:19:18;;;;;;;16.55;9.65;;;17.20;84.60;;;;;;5044074;28;20075;-79
2021/08/14 00:21:43;;;;;;;17.55;9.55;;;17.20;84.50;;;;;;5062204;28;20029;-79
2021/08/14 00:24:09;;;;;;;11.70;8.85;;;17.10;84.40;;;;;;5063921;28;20119;-79
2021/08/14 00:26:35;;;;;;;14.10;8.90;;;17.10;84.40;;;;;;5024104;28;20037;-79
2021/08/14 00:29:00;;;;;;;14.98;8.13;;;17.10;84.40;;;;;;5046255;28;20032;-79
2021/08/14 00:31:26;;;;;;;15.65;8.93;;;17.10;84.60;;;;;;5028900;28;20025;-79
2021/08/14 00:33:52;;;;;;;11.02;7.90;;;17.10;84.60;;;;;;5042012;28;20037;-79
2021/08/14 00:36:17;;;;;;;13.57;9.65;;;17.00;84.50;;;;;;5045400;28;20032;-78
2021/08/14 00:38:43;;;;;;;16.67;9.35;;;17.00;84.60;;;;;;5032626;28;20045;-78
2021/08/14 00:41:09;;;;;;;16.30;9.98;;;17.00;84.60;;;;;;5069748;28;20041;-79
2021/08/14 00:43:34;;;;;;;15.75;9.40;;;17.00;84.70;;;;;;5064488;28;20037;-79
2021/08/14 00:46:00;;;;;;;15.00;9.18;;;16.90;84.60;;;;;;5063731;28;20032;-79
2021/08/14 00:48:26;;;;;;;15.88;9.13;;;16.90;84.70;;;;;;5029397;28;20036;-79
2021/08/14 00:50:52;;;;;;;22.25;10.75;;;16.90;84.60;;;;;;5035940;28;20036;-78
2021/08/14 00:53:19;;;;;;;14.50;9.45;;;16.80;84.80;;;;;;5061071;28;20060;-78
2021/08/14 00:55:45;;;;;;;12.93;9.10;;;16.80;85.00;;;;;;5036516;28;20037;-79
2021/08/14 00:58:12;;;;;;;14.63;9.73;;;16.80;85.20;;;;;;5064033;28;20036;-78
2021/08/14 01:00:38;;;;;;;13.88;9.15;;;16.70;85.30;;;;;;5059538;28;20082;-79
2021/08/14 01:03:04;;;;;;;15.57;9.05;;;16.70;85.20;;;;;;5048189;28;20123;-79
2021/08/14 01:05:30;;;;;;;13.63;8.52;;;16.70;85.10;;;;;;5035277;28;20519;-78
2021/08/14 01:07:55;;;;;;;12.88;7.55;;;16.70;85.00;;;;;;5066173;28;22007;-79
2021/08/14 01:10:22;;;;;;;14.90;9.32;;;16.70;84.80;;;;;;5073517;28;20362;-78
2021/08/14 01:12:53;;;;;;;18.77;9.43;;;16.60;85.30;;;;;;5044772;28;20112;-78
2021/08/14 01:15:18;;;;;;;13.70;8.00;;;16.60;85.00;;;;;;5051130;28;20059;-78
2021/08/14 01:17:44;;;;;;;14.77;8.18;;;16.60;84.90;;;;;;5055038;28;20455;-78
2021/08/14 01:20:10;;;;;;;20.58;10.27;;;16.60;84.80;;;;;;5049974;28;20412;-78
2021/08/14 01:22:38;;;;;;;20.15;10.75;;;16.60;84.80;;;;;;5067827;28;20117;-78
2021/08/14 01:25:05;;;;;;;14.15;9.35;;;16.50;85.00;;;;;;5047133;28;20384;-78
2021/08/14 01:27:32;;;;;;;17.00;10.00;;;16.50;85.10;;;;;;5033674;28;20036;-90
2021/08/14 01:29:58;;;;;;;16.80;10.07;;;16.40;85.20;;;;;;5044510;28;20497;-91
2021/08/14 01:32:23;;;;;;;19.17;9.07;;;16.40;85.30;;;;;;5059349;28;20028;-90
2021/08/14 01:34:50;;;;;;;18.98;9.93;;;16.40;85.40;;;;;;5059889;28;20017;-90
2021/08/14 01:37:16;;;;;;;16.98;9.80;;;16.30;85.50;;;;;;5061800;28;20047;-90
2021/08/14 01:39:42;;;;;;;20.27;10.35;;;16.30;85.60;;;;;;5062268;28;20552;-79
2021/08/14 01:42:08;;;;;;;17.80;10.25;;;16.20;85.80;;;;;;5029992;28;20036;-78
2021/08/14 01:44:36;;;;;;;17.88;10.35;;;16.20;85.90;;;;;;5041618;28;20031;-78
2021/08/14 01:47:02;;;;;;;19.85;10.32;;;16.20;86.20;;;;;;5049828;28;20112;-79
2021/08/14 01:49:28;;;;;;;17.40;10.60;;;16.10;86.30;;;;;;5044400;28;20440;-78
2021/08/14 01:51:54;;;;;;;17.80;10.48;;;16.10;86.50;;;;;;5052883;28;20031;-79
2021/08/14 01:54:21;;;;;;;15.13;10.52;;;16.10;86.60;;;;;;5046574;28;20098;-78
2021/08/14 01:56:48;;;;;;;17.67;9.70;;;16.10;86.70;;;;;;5045950;28;20033;-79
2021/08/14 01:59:14;;;;;;;15.23;10.13;;;16.10;86.70;;;;;;5067764;28;20028;-79
2021/08/14 02:01:40;;;;;;;14.93;9.55;;;16.10;86.70;;;;;;5034581;28;20476;-79
2021/08/14 02:04:06;;;;;;;16.13;10.35;;;16.10;86.60;;;;;;5042539;28;20033;-78
2021/08/14 02:06:32;;;;;;;14.00;9.38;;;16.10;86.60;;;;;;5058286;28;20063;-78
2021/08/14 02:08:58;;;;;;;19.08;10.60;;;16.10;86.60;;;;;;5044580;28;20028;-78
2021/08/14 02:11:29;;;;;;;14.98;9.10;;;16.10;86.50;;;;;;5064387;28;20093;-79
2021/08/14 02:13:56;;;;;;;13.63;8.75;;;16.10;86.60;;;;;;5041762;28;20025;-79
2021/08/14 02:16:22;;;;;;;19.63;8.63;;;16.10;86.50;;;;;;5043313;28;20045;-79
2021/08/14 02:18:48;;;;;;;14.73;10.27;;;16.10;86.40;;;;;;5036222;28;20039;-78
2021/08/14 02:21:14;;;;;;;15.27;9.23;;;16.10;86.40;;;;;;5040837;28;20591;-79
2021/08/14 02:23:41;;;;;;;15.88;9.02;;;16.10;86.30;;;;;;5057677;28;20033;-79
2021/08/14 02:26:07;;;;;;;16.08;9.75;;;16.00;86.10;;;;;;5074388;28;20036;-79
2021/08/14 02:28:33;;;;;;;11.75;8.23;;;16.00;86.10;;;;;;5052976;28;20025;-79
2021/08/14 02:31:00;;;;;;;11.52;8.82;;;16.00;86.00;;;;;;5050684;28;20024;-78
2021/08/14 02:33:26;;;;;;;15.27;9.15;;;15.90;85.90;;;;;;5041887;28;20020;-79
2021/08/14 02:35:52;;;;;;;11.95;9.13;;;15.90;85.90;;;;;;5061965;28;20017;-79
2021/08/14 02:38:18;;;;;;;14.43;8.60;;;15.80;85.90;;;;;;5045489;28;20481;-79
2021/08/14 02:40:47;;;;;;;12.10;9.40;;;15.80;86.00;;;;;;5041829;28;20045;-79
2021/08/14 02:43:13;;;;;;;;;;;15.80;86.20;;;;;;5035987;28;20036;-78
2021/08/14 02:45:40;;;;;;;14.07;8.45;;;15.70;86.00;;;;;;5067239;28;19904;-78
2021/08/14 02:48:06;;;;;;;16.35;8.77;;;15.70;86.40;;;;;;5044450;28;20033;-79
2021/08/14 02:50:32;;;;;;;15.05;8.80;;;15.70;86.40;;;;;;5038772;28;20112;-79
2021/08/14 02:52:57;;;;;;;15.35;9.43;;;15.70;86.60;;;;;;5043166;28;20473;-79
2021/08/14 02:55:24;;;;;;;11.68;7.88;;;15.70;86.60;;;;;;5029910;28;20057;-79
2021/08/14 02:57:49;;;;;;;11.65;7.43;;;15.70;86.60;;;;;;5048342;28;20512;-79
2021/08/14 03:00:15;;;;;;;12.93;8.77;;;15.60;86.50;;;;;;5040104;28;20043;-78
2021/08/14 03:02:41;;;;;;;13.35;8.52;;;15.60;86.40;;;;;;5034513;28;20031;-78
2021/08/14 03:05:07;;;;;;;15.60;8.90;;;15.60;86.40;;;;;;5061595;28;20501;-79
2021/08/14 03:07:33;;;;;;;11.93;8.35;;;15.60;86.40;;;;;;5063238;28;20028;-79
2021/08/14 03:09:59;;;;;;;14.10;8.48;;;15.60;86.60;;;;;;5063214;28;21632;-78
2021/08/14 03:12:25;;;;;;;15.10;9.27;;;15.50;86.50;;;;;;5071778;28;20028;-79
2021/08/14 03:14:51;;;;;;;12.38;8.55;;;15.50;86.60;;;;;;5061762;28;20029;-78
2021/08/14 03:17:17;;;;;;;12.70;8.75;;;15.50;87.40;;;;;;5066503;28;20064;-78
2021/08/14 03:19:43;;;;;;;16.90;9.00;;;15.50;86.70;;;;;;5062742;28;20037;-79
2021/08/14 03:22:09;;;;;;;13.75;8.88;;;15.50;86.80;;;;;;5045675;28;20056;-79
2021/08/14 03:24:35;;;;;;;13.85;8.80;;;15.40;86.70;;;;;;5050951;28;20025;-79
2021/08/14 03:27:01;;;;;;;15.27;9.30;;;15.40;87.40;;;;;;5043643;28;20025;-78
2021/08/14 03:29:26;;;;;;;15.07;9.73;;;15.40;86.90;;;;;;5040616;28;20029;-79
2021/08/14 03:31:52;;;;;;;19.55;9.77;;;15.40;86.90;;;;;;5047227;28;20032;-79
2021/08/14 03:34:18;;;;;;;12.32;8.98;;;15.40;86.90;;;;;;5055489;28;20029;-79
2021/08/14 03:36:43;;;;;;;14.73;8.85;;;15.40;87.50;;;;;;5048239;28;20035;-79
2021/08/14 03:39:09;;;;;;;15.25;8.45;;;15.40;87.00;;;;;;5042336;28;20070;-78
2021/08/14 03:41:34;;;;;;;16.17;9.32;;;15.30;87.00;;;;;;5044127;28;20037;-78
2021/08/14 03:44:01;;;;;;;13.20;8.35;;;15.30;87.00;;;;;;5045364;28;20040;-86
2021/08/14 03:46:27;;;;;;;12.13;8.27;;;15.30;87.10;;;;;;5069238;28;20032;-87
2021/08/14 03:48:52;;;;;;;16.42;8.43;;;15.30;87.00;;;;;;5075368;28;20021;-87
2021/08/14 03:51:18;;;;;;;17.55;9.40;;;15.30;87.10;;;;;;5065002;28;20033;-87
2021/08/14 03:53:44;;;;;;;12.50;8.05;;;15.30;87.10;;;;;;5045124;28;20048;-86
2021/08/14 03:56:09;;;;;;;16.45;8.63;;;15.20;87.10;;;;;;5037918;28;20024;-87
2021/08/14 03:58:35;;;;;;;18.38;8.20;;;15.20;87.10;;;;;;5055304;28;20040;-87
2021/08/14 04:01:02;;;;;;;14.30;8.63;;;15.20;87.00;;;;;;5029911;28;20027;-87
2021/08/14 04:03:28;;;;;;;14.93;8.23;;;15.20;87.10;;;;;;5036823;28;20044;-87
2021/08/14 04:05:54;;;;;;;14.63;7.70;;;15.10;87.20;;;;;;5054485;28;20021;-87
2021/08/14 04:08:20;;;;;;;15.38;7.72;;;15.10;87.30;;;;;;5038848;28;20021;-87
2021/08/14 04:10:46;;;;;;;12.75;8.18;;;15.10;87.30;;;;;;5055901;28;20025;-87
2021/08/14 04:13:12;;;;;;;13.10;6.82;;;15.10;87.30;;;;;;5054268;28;20370;-87
2021/08/14 04:15:38;;;;;;;15.02;7.45;;;15.10;87.40;;;;;;5060863;28;20039;-87
2021/08/14 04:18:04;;;;;;;20.17;8.77;;;15.10;87.40;;;;;;5059188;28;20033;-87
2021/08/14 04:20:30;;;;;;;17.63;7.70;;;15.00;87.30;;;;;;5060466;28;20398;-87
2021/08/14 04:22:55;;;;;;;13.45;8.15;;;15.10;87.90;;;;;;5042582;28;20036;-87
2021/08/14 04:25:21;;;;;;;16.40;7.45;;;15.00;87.20;;;;;;5030113;28;20116;-87
2021/08/14 04:27:47;;;;;;;15.25;7.75;;;15.00;87.20;;;;;;5024655;28;20401;-87
2021/08/14 04:30:13;;;;;;;16.85;7.70;;;15.00;87.10;;;;;;5033597;28;20025;-87
2021/08/14 04:32:39;;;;;;;13.13;7.43;;;15.00;87.20;;;;;;5040103;28;20059;-87
2021/08/14 04:35:06;;;;;;;13.27;7.65;;;15.00;87.30;;;;;;5042717;28;20060;-86
2021/08/14 04:37:32;;;;;;;18.52;7.93;;;14.90;87.30;;;;;;5025678;28;20469;-87
2021/08/14 04:39:58;;;;;;;17.10;7.25;;;14.90;87.30;;;;;;5058040;28;20083;-87
2021/08/14 04:42:23;;;;;;;12.15;6.72;;;14.90;87.40;;;;;;5036338;28;20465;-87
2021/08/14 04:44:49;;;;;;;12.15;6.75;;;14.90;87.60;;;;;;5054737;28;20036;-88
2021/08/14 04:47:14;;;;;;;14.75;6.88;;;14.90;87.50;;;;;;5038890;28;20060;-86
2021/08/14 04:49:40;;;;;;;13.38;7.40;;;15.00;87.60;;;;;;5035877;28;20025;-87
2021/08/14 04:52:05;;;;;;;13.52;6.90;;;15.00;87.70;;;;;;5042443;28;20454;-87
2021/08/14 04:54:31;;;;;;;12.32;7.18;;;15.00;87.60;;;;;;5043817;28;20028;-87
2021/08/14 04:56:57;;;;;;;24.30;7.90;;;15.00;87.60;;;;;;5060664;28;20028;-87
2021/08/14 04:59:22;;;;;;;11.27;6.75;;;15.00;87.60;;;;;;5042440;28;20154;-87
2021/08/14 05:01:48;;;;;;;15.75;7.78;;;15.00;88.40;;;;;;5045136;28;20485;-87
2021/08/14 05:04:13;;;;;;;14.73;7.13;;;15.10;87.80;;;;;;5037100;28;20032;-87
2021/08/14 05:06:39;;;;;;;10.52;6.47;;;15.10;87.90;;;;;;5045406;28;20040;-87
2021/08/14 05:09:05;;;;;;;13.30;6.50;;;15.10;87.80;;;;;;5026992;28;20029;-86
2021/08/14 05:11:31;;;;;;;21.23;8.38;;;15.10;87.80;;;;;;5060576;28;20146;-87
2021/08/14 05:13:57;;;;;;;12.75;7.03;;;15.20;87.80;;;;;;5057402;28;20393;-87
2021/08/14 05:16:25;;;;;;;13.43;6.38;;;15.20;87.80;;;;;;5071224;28;20412;-87
2021/08/14 05:18:51;;;;;;;13.63;6.65;;;15.20;87.80;;;;;;5039069;28;20090;-87
2021/08/14 05:21:17;;;;;;;19.67;6.78;;;15.30;87.80;;;;;;5064310;28;20401;-87
2021/08/14 05:23:42;;;;;;;15.20;6.70;;;15.30;87.80;;;;;;5044563;28;20036;-87
2021/08/14 05:26:08;;;;;;;9.32;5.60;;;15.30;88.50;;;;;;5058846;28;20036;-87
2021/08/14 05:28:34;;;;;;;10.32;6.15;;;15.40;87.90;;;;;;5040092;28;20665;-87
2021/08/14 05:30:59;;;;;;;11.07;6.53;;;15.40;88.00;;;;;;5054549;28;20048;-87
2021/08/14 05:33:25;;;;;;;12.77;6.40;;;15.50;88.20;;;;;;5045553;28;20060;-87
2021/08/14 05:35:50;;;;;;;13.50;6.80;;;15.50;88.20;;;;;;5040916;28;20040;-87
2021/08/14 05:38:16;;;;;;;14.85;6.00;;;15.50;88.20;;;;;;5060682;28;20033;-76
2021/08/14 05:40:42;;;;;;;18.40;6.57;;;15.60;88.30;;;;;;5026685;28;20025;-77
2021/08/14 05:43:07;;;;;;;15.10;5.93;;;15.60;89.00;;;;;;5044686;28;20469;-77
2021/08/14 05:45:33;;;;;;;14.43;6.35;;;15.70;88.40;;;;;;5054238;28;20082;-76
2021/08/14 05:48:03;;;;;;;13.07;5.78;;;15.80;88.40;;;;;;5052076;28;20435;-76
2021/08/14 05:50:29;;;;;;;15.23;6.25;;;15.80;88.40;;;;;;5067291;28;20063;-77
2021/08/14 05:52:55;;;;;;;13.23;5.55;;;15.90;88.40;;;;;;5040780;28;20427;-77
2021/08/14 05:55:20;;;;;;;17.20;6.28;;;16.00;88.40;;;;;;5061262;28;20392;-77
2021/08/14 05:57:46;;;;;;;16.88;6.75;;;16.00;88.30;;;;;;5060169;28;20141;-78
2021/08/14 06:00:12;;;;;;;14.80;6.20;;;16.10;88.30;;;;;;5044647;28;20036;-76
2021/08/14 06:02:38;;;;;;;13.45;5.63;;;16.20;88.30;;;;;;5047628;28;20041;-77
2021/08/14 06:05:05;;;;;;;18.17;5.70;;;16.30;88.10;;;;;;5046491;28;20555;-77
2021/08/14 06:07:30;;;;;;;12.57;5.20;;;16.30;87.90;;;;;;5048000;28;20028;-77
2021/08/14 06:09:56;;;;;;;11.35;5.60;;;16.40;87.70;;;;;;5047422;28;20149;-76
2021/08/14 06:12:21;;;;;;;14.55;6.07;;;16.40;87.60;;;;;;5027036;28;20029;-76
2021/08/14 06:14:47;;;;;;;12.40;5.38;;;16.50;87.50;;;;;;5033798;28;20047;-79
2021/08/14 06:17:12;;;;;;;13.88;5.57;;;16.60;87.30;;;;;;5035531;28;20135;-80
2021/08/14 06:19:38;;;;;;;14.00;5.13;;;16.70;87.20;;;;;;5034716;28;20040;-79
2021/08/14 06:22:04;;;;;;;15.95;5.60;;;16.70;87.00;;;;;;5045647;28;20037;-79
2021/08/14 06:24:31;;;;;;;13.27;5.50;;;16.80;87.00;;;;;;5043950;28;20049;-80
2021/08/14 06:26:56;;;;;;;14.68;5.35;;;16.80;87.00;;;;;;5073069;28;20489;-79
2021/08/14 06:29:22;;;;;;;19.65;6.03;;;16.90;87.00;;;;;;5033008;28;20028;-80
2021/08/14 06:31:47;;;;;;;17.88;5.00;;;17.00;86.70;;;;;;5033676;28;20040;-79
2021/08/14 06:34:13;;;;;;;14.48;5.60;;;17.00;86.00;;;;;;5054449;28;20177;-81
2021/08/14 06:36:39;;;;;;;15.32;5.03;;;17.10;85.80;;;;;;5051035;28;20083;-80
2021/08/14 06:39:04;;;;;;;14.18;5.60;;;17.20;85.50;;;;;;5067154;28;20044;-80
2021/08/14 06:41:30;;;;;;;12.75;5.22;;;17.30;85.50;;;;;;5050932;28;20090;-82
2021/08/14 06:43:56;;;;;;;16.15;5.88;;;17.40;85.30;;;;;;5051234;28;20036;-82
2021/08/14 06:46:21;;;;;;;13.65;4.55;;;17.40;84.90;;;;;;5034481;28;20032;-83
2021/08/14 06:48:47;;;;;;;15.35;4.97;;;17.50;84.60;;;;;;5051527;28;20116;-83
2021/08/14 06:51:13;;;;;;;15.38;5.13;;;17.60;84.20;;;;;;5035696;28;20024;-83
2021/08/14 06:53:40;;;;;;;17.73;5.03;;;17.70;83.60;;;;;;5051378;28;20016;-83
2021/08/14 06:56:05;;;;;;;14.43;5.20;;;17.80;83.20;;;;;;5069923;28;20028;-82
2021/08/14 06:58:31;;;;;;;17.05;6.15;;;17.90;82.60;;;;;;5050894;28;20047;-83
2021/08/14 07:00:57;;;;;;;12.57;5.30;;;17.90;82.30;;;;;;5034595;28;20052;-83
2021/08/14 07:03:22;;;;;;;17.67;5.40;;;18.10;82.00;;;;;;5018864;28;20090;-82
2021/08/14 07:05:48;;;;;;;19.80;5.38;;;18.20;81.20;;;;;;5050378;28;20028;-82
2021/08/14 07:08:13;;;;;;;16.00;5.40;;;18.30;80.90;;;;;;5049773;28;20029;-81
2021/08/14 07:10:39;;;;;;;12.48;4.88;;;18.40;80.30;;;;;;5068839;28;20404;-84
2021/08/14 07:13:05;;;;;;;13.57;4.95;;;18.60;80.30;;;;;;5050280;28;20112;-83
2021/08/14 07:15:31;;;;;;;17.35;5.35;;;18.70;80.30;;;;;;5068522;28;20024;-82
2021/08/14 07:17:57;;;;;;;14.25;5.03;;;18.80;79.50;;;;;;5045495;28;20061;-83
2021/08/14 07:20:22;;;;;;;15.75;5.35;;;18.90;78.50;;;;;;5028119;28;20032;-83
2021/08/14 07:22:48;;;;;;;16.10;5.43;;;19.10;78.30;;;;;;5044968;28;20111;-81
2021/08/14 07:25:14;;;;;;;15.90;5.20;;;19.20;78.10;;;;;;5052957;28;20293;-78
2021/08/14 07:27:39;;;;;;;14.07;5.57;;;19.30;77.90;;;;;;5055708;28;20044;-76
2021/08/14 07:30:05;;;;;;;12.93;5.05;;;19.40;77.20;;;;;;5052618;28;20021;-76
2021/08/14 07:32:31;;;;;;;15.30;4.93;;;19.50;77.00;;;;;;5031781;28;20064;-77
2021/08/14 07:34:57;;;;;;;18.70;5.07;;;19.60;76.90;;;;;;5050714;28;20070;-73
2021/08/14 07:37:22;;;;;;;15.52;4.78;;;19.70;76.20;;;;;;5033945;28;20525;-75
2021/08/14 07:39:48;;;;;;;12.57;4.47;;;19.80;75.90;;;;;;5033126;28;20371;-72
2021/08/14 07:42:14;;;;;;;9.98;4.00;;;19.90;75.80;;;;;;5033612;28;20477;-73
2021/08/14 07:44:39;;;;;;;13.52;4.85;;;20.00;75.20;;;;;;5030785;28;20106;-73
2021/08/14 07:47:05;;;;;;;13.63;5.18;;;20.10;74.70;;;;;;5043106;28;20033;-74
2021/08/14 07:49:31;;;;;;;12.20;4.60;;;20.20;73.70;;;;;;5038358;28;20426;-78
2021/08/14 07:51:57;;;;;;;11.95;4.30;;;20.30;74.10;;;;;;5070338;28;20831;-80
2021/08/14 07:54:23;;;;;;;12.80;4.63;;;20.40;73.30;;;;;;5049397;28;20032;-75
2021/08/14 07:56:48;;;;;;;13.65;4.05;;;20.50;72.60;;;;;;5046985;28;20025;-76
2021/08/14 07:59:14;;;;;;;18.70;4.18;;;20.60;72.60;;;;;;5047433;28;20033;-75
2021/08/14 08:01:39;;;;;;;12.05;3.65;;;20.70;71.90;;;;;;5045884;28;20512;-75
2021/08/14 08:04:05;;;;;;;11.60;3.50;;;20.80;70.90;;;;;;5049408;28;20075;-75
2021/08/14 08:06:30;;;;;;;11.27;3.63;;;20.90;71.00;;;;;;5047987;28;20033;-76
2021/08/14 08:08:56;;;;;;;15.20;4.05;;;21.00;71.00;;;;;;5031216;28;20304;-80
2021/08/14 08:11:22;;;;;;;10.43;3.22;;;21.10;69.10;;;;;;5044796;28;20025;-81
2021/08/14 08:13:47;;;;;;;11.25;3.85;;;21.20;69.20;;;;;;5029498;28;20021;-79
2021/08/14 08:16:13;;;;;;;15.30;3.53;;;21.40;68.20;;;;;;5063929;28;20049;-80
2021/08/14 08:18:38;;;;;;;11.95;3.50;;;21.40;69.00;;;;;;5049331;28;20151;-78
2021/08/14 08:21:05;;;;;;;14.93;3.80;;;21.60;68.40;;;;;;5050510;28;20032;-79
2021/08/14 08:23:30;;;;;;;9.57;3.33;;;21.70;68.10;;;;;;5069517;28;20032;-77
2021/08/14 08:25:56;;;;;;;11.98;3.20;;;21.80;67.60;;;;;;5071249;28;20041;-76
2021/08/14 08:28:23;;;;;;;10.43;3.35;;;21.80;67.40;;;;;;5037777;28;20489;-78
2021/08/14 08:30:49;;;;;;;11.95;3.20;;;22.00;67.00;;;;;;5071817;28;20033;-76
2021/08/14 08:33:16;;;;;;;12.77;3.28;;;22.00;66.20;;;;;;5060696;28;20051;-78
2021/08/14 08:35:41;;;;;;;11.57;3.00;;;22.10;66.10;;;;;;5072364;28;20057;-79
2021/08/14 08:38:07;;;;;;;9.27;3.00;;;22.20;65.70;;;;;;5072647;28;20535;-80
2021/08/14 08:40:38;;;;;;;11.50;3.47;;;22.30;65.90;;;;;;5054057;28;20025;-80
2021/08/14 08:43:04;;;;;;;11.15;3.30;;;22.50;65.00;;;;;;5072786;28;20029;-80
2021/08/14 08:45:31;;;;;;;10.73;3.15;;;22.60;64.50;;;;;;5054916;28;20074;-82
2021/08/14 08:47:57;;;;;;;11.38;3.22;;;22.70;64.00;;;;;;5072495;28;20031;-78
2021/08/14 08:50:28;;;;;;;10.32;3.38;;;22.90;62.50;;;;;;5070730;28;20021;-81
2021/08/14 08:52:53;;;;;;;13.77;2.90;;;22.90;61.90;;;;;;5051480;28;20078;-79
2021/08/14 08:55:21;;;;;;;9.77;2.78;;;23.00;62.40;;;;;;5054900;28;20052;-80
2021/08/14 08:57:47;;;;;;;8.68;3.00;;;23.10;62.80;;;;;;5072378;28;20037;-80
2021/08/14 09:00:16;;;;;;;9.20;3.05;;;23.20;61.10;;;;;;5071658;28;20409;-80
2021/08/14 09:02:42;;;;;;;;;;;23.20;61.30;;;;;;5054469;28;20036;-81
2021/08/14 09:05:14;;;;;;;9.70;3.22;;;23.30;61.80;;;;;;5071768;28;20005;-81
2021/08/14 09:07:41;;;;;;;9.98;3.15;;;23.40;61.40;;;;;;5071020;28;20060;-81
2021/08/14 09:10:09;;;;;;;6.53;2.88;;;23.50;61.10;;;;;;5053546;28;20036;-82
2021/08/14 09:12:44;;;;;;;10.70;3.40;;;23.60;60.60;;;;;;5053840;28;20037;-80
2021/08/14 09:15:19;;;;;;;8.75;3.10;;;23.60;59.90;;;;;;5053361;28;20056;-81
2021/08/14 09:17:46;;;;;;;9.98;3.17;;;23.70;59.80;;;;;;5075556;28;20141;-78
2021/08/14 09:20:19;;;;;;;12.10;3.25;;;23.70;60.30;;;;;;5058516;28;20028;-79
2021/08/14 09:23:06;;;;;;;8.95;3.13;;;23.80;60.30;;;;;;5058509;28;20029;-81
2021/08/14 09:25:50;;;;;;;10.35;2.90;;;24.00;60.50;;;;;;5043042;28;20590;-80
2021/08/14 09:28:18;;;;;;;8.38;2.85;;;24.10;60.60;;;;;;5057409;28;20036;-81
2021/08/14 09:30:54;;;;;;;15.98;3.08;;;24.20;60.40;;;;;;5075428;28;20020;-81
2021/08/14 09:33:22;;;;;;;12.68;2.85;;;24.30;60.00;;;;;;5075110;28;20025;-80
2021/08/14 09:35:57;;;;;;;8.75;3.05;;;24.30;58.90;;;;;;5074283;28;20527;-82
2021/08/14 09:38:23;;;;;;;8.38;3.28;;;24.40;59.80;;;;;;5075502;28;20054;-81
2021/08/14 09:40:49;;;;;;;13.27;3.22;;;24.40;59.90;;;;;;5057702;28;20029;-79
2021/08/14 09:43:32;;;;;;;8.38;3.05;;;24.50;59.90;;;;;;5076039;28;20392;-80
2021/08/14 09:45:58;;;;;;;10.13;3.00;;;24.60;58.40;;;;;;5075998;28;20024;-79
2021/08/14 09:48:25;;;;;;;8.30;2.85;;;24.60;58.60;;;;;;5059382;28;20031;-81
2021/08/14 09:50:52;;;;;;;12.10;3.15;;;24.70;58.50;;;;;;5075663;28;20032;-80
2021/08/14 09:53:27;;;;;;;7.93;2.80;;;24.80;59.10;;;;;;5075598;28;20027;-78
2021/08/14 09:56:08;;;;;;;13.82;3.20;;;24.90;59.40;;;;;;5075576;28;20389;-79
2021/08/14 09:58:35;;;;;;;9.43;2.95;;;25.00;58.80;;;;;;5057492;28;20012;-80
2021/08/14 10:01:02;;;;;;;5.90;2.70;;;25.00;57.60;;;;;;5075524;28;20021;-80
2021/08/14 10:03:31;;;;;;;6.60;2.55;;;25.00;57.70;;;;;;5057047;28;20471;-78
2021/08/14 10:05:59;;;;;;;9.35;2.50;;;25.10;57.40;;;;;;5057266;28;20032;-77
2021/08/14 10:08:28;;;;;;;9.10;3.03;;;25.10;56.90;;;;;;5074379;28;20093;-79
2021/08/14 10:10:55;;;;;;;9.57;2.97;;;25.10;56.50;;;;;;5074704;28;20088;-81
2021/08/14 10:13:21;;;;;;;6.57;2.78;;;25.20;57.00;;;;;;5074592;28;20027;-78
2021/08/14 10:15:47;;;;;;;9.98;3.13;;;25.20;56.70;;;;;;5075145;28;20028;-80
2021/08/14 10:18:16;;;;;;;6.93;2.88;;;25.20;56.70;;;;;;5074586;28;20036;-79
2021/08/14 10:20:42;;;;;;;9.82;3.00;;;25.20;57.10;;;;;;5075328;28;20056;-80
2021/08/14 10:23:11;;;;;;;7.85;2.90;;;25.30;57.60;;;;;;5075096;28;20063;-80
2021/08/14 10:25:39;;;;;;;7.13;2.72;;;25.40;57.10;;;;;;5075071;28;20695;-78
2021/08/14 10:28:06;;;;;;;8.65;2.83;;;25.40;56.60;;;;;;5073306;28;20508;-77
2021/08/14 10:30:43;;;;;;;8.60;2.80;;;25.50;56.20;;;;;;5056505;28;20058;-77
2021/08/14 10:33:29;;;;;;;9.90;2.78;;;25.50;56.20;;;;;;5055795;28;20036;-76
2021/08/14 10:36:18;;;;;;;7.15;2.72;;;25.40;55.80;;;;;;5073682;28;20029;-78
2021/08/14 10:38:50;;;;;;;10.68;2.90;;;25.40;56.00;;;;;;5074428;28;20023;-78
2021/08/14 10:41:17;;;;;;;10.50;3.20;;;25.50;57.10;;;;;;5040268;28;20538;-78
2021/08/14 10:43:54;;;;;;;7.28;2.85;;;25.50;56.90;;;;;;5036861;28;20042;-78
2021/08/14 10:46:42;;;;;;;9.57;2.63;;;25.60;56.70;;;;;;5071677;28;20497;-78
2021/08/14 10:49:12;;;;;;;7.00;2.85;;;25.60;56.80;;;;;;5074245;28;20381;-78
2021/08/14 10:51:47;;;;;;;6.15;2.63;;;25.80;56.20;;;;;;5056409;28;20488;-79
2021/08/14 10:54:14;;;;;;;8.50;2.63;;;25.80;55.30;;;;;;5074162;28;20017;-78
2021/08/14 10:56:57;;;;;;;10.23;3.20;;;25.90;55.30;;;;;;5056010;28;20036;-78
2021/08/14 10:59:38;;;;;;;7.35;2.92;;;25.90;55.90;;;;;;5074099;28;20045;-78
2021/08/14 11:02:06;;;;;;;8.00;2.90;;;26.00;54.90;;;;;;5073795;28;20016;-79
2021/08/14 11:04:33;;;;;;;;;;;26.00;55.20;;;;;;5073461;28;20058;-79
2021/08/14 11:07:19;;;;;;;6.40;2.63;;;26.00;55.70;;;;;;5055513;28;19920;-78
2021/08/14 11:09:54;;;;;;;10.77;3.40;;;26.10;55.00;;;;;;5072907;28;20473;-78
2021/08/14 11:12:43;;;;;;;5.78;2.50;;;26.00;54.70;;;;;;5073258;28;20439;-78
2021/08/14 11:15:19;;;;;;;6.18;2.80;;;26.10;55.20;;;;;;5073343;28;20017;-78
2021/08/14 11:17:47;;;;;;;11.73;3.40;;;26.20;54.80;;;;;;5072632;28;20052;-79
2021/08/14 11:20:25;;;;;;;7.82;3.13;;;26.30;55.20;;;;;;5071821;28;20400;-78
2021/08/14 11:22:55;;;;;;;8.98;2.63;;;26.40;54.40;;;;;;5073306;28;20103;-79
2021/08/14 11:25:25;;;;;;;7.65;2.83;;;26.40;54.10;;;;;;5067027;28;20489;-79
2021/08/14 11:27:58;;;;;;;6.72;2.85;;;26.40;53.80;;;;;;5055334;28;20393;-79
2021/08/14 11:30:26;;;;;;;8.98;3.13;;;26.40;54.00;;;;;;5055658;28;20025;-79
2021/08/14 11:32:55;;;;;;;9.13;3.10;;;26.40;54.60;;;;;;5073683;28;20020;-79
2021/08/14 11:35:24;;;;;;;7.60;3.08;;;26.40;54.70;;;;;;5060926;28;20073;-79
2021/08/14 11:37:50;;;;;;;;;;;26.50;53.90;;;;;;5056351;28;20077;-79
2021/08/14 11:40:21;;;;;;;7.97;3.40;;;26.50;54.10;;;;;;5055247;28;19912;-79
2021/08/14 11:43:03;;;;;;;8.93;3.20;;;26.50;54.00;;;;;;5055823;28;20028;-79
2021/08/14 11:45:30;;;;;;;10.02;3.28;;;26.50;53.40;;;;;;5073285;28;20024;-79
2021/08/14 11:48:22;;;;;;;9.63;3.08;;;26.50;54.40;;;;;;5073313;28;20029;-79
2021/08/14 11:50:49;;;;;;;8.65;3.33;;;26.60;55.00;;;;;;5051004;28;20044;-79
2021/08/14 11:53:27;;;;;;;8.10;3.25;;;26.60;54.90;;;;;;5055355;28;20073;-79
2021/08/14 11:56:10;;;;;;;8.80;2.95;;;26.60;54.70;;;;;;5073388;28;20025;-80
2021/08/14 11:58:36;;;;;;;9.63;3.45;;;26.60;54.70;;;;;;5073225;28;20401;-79
2021/08/14 12:01:03;;;;;;;7.72;3.53;;;26.60;54.60;;;;;;5054670;28;20497;-79
2021/08/14 12:03:29;;;;;;;9.25;3.60;;;26.60;53.90;;;;;;5055073;28;20108;-80
2021/08/14 12:06:06;;;;;;;9.00;3.55;;;26.60;54.10;;;;;;5054580;28;20060;-81
2021/08/14 12:08:34;;;;;;;9.65;3.13;;;26.70;53.60;;;;;;5071522;28;20020;-81
2021/08/14 12:11:08;;;;;;;10.50;3.25;;;26.70;53.50;;;;;;5072231;28;20032;-78
2021/08/14 12:13:35;;;;;;;10.82;3.65;;;26.70;53.70;;;;;;5071391;28;20685;-80
2021/08/14 12:16:17;;;;;;;11.13;3.97;;;26.70;54.30;;;;;;5020063;28;20635;-79
2021/08/14 12:18:48;;;;;;;11.60;3.53;;;26.70;55.10;;;;;;5060979;28;20401;-78
2021/08/14 12:21:15;;;;;;;12.45;3.60;;;26.70;54.70;;;;;;5072367;28;20024;-78
2021/08/14 12:23:41;;;;;;;9.05;3.90;;;26.60;54.90;;;;;;5066562;28;20029;-78
2021/08/14 12:26:25;;;;;;;10.20;3.70;;;26.50;55.00;;;;;;5072283;28;20032;-79
2021/08/14 12:29:22;;;;;;;12.18;3.35;;;26.60;54.90;;;;;;5070653;28;20028;-78
2021/08/14 12:31:52;;;;;;;11.15;3.95;;;26.60;54.60;;;;;;5070452;28;20409;-78
2021/08/14 12:34:33;;;;;;;9.43;3.63;;;26.60;53.90;;;;;;5052814;28;20107;-78
2021/08/14 12:37:09;;;;;;;11.10;3.83;;;26.40;54.60;;;;;;5052958;28;20038;-78
2021/08/14 12:39:55;;;;;;;9.18;3.83;;;26.40;55.20;;;;;;5070788;28;20025;-78
2021/08/14 12:42:27;;;;;;;11.82;4.05;;;26.60;55.30;;;;;;5071764;28;20025;-78
2021/08/14 12:44:52;;;;;;;8.75;3.78;;;26.70;54.70;;;;;;5041947;28;20414;-78